IAM200 LIMF-LIMF

Flight info

Callsign IAM200
Flight time 0h 36m
Altitude 25000
Route CIRCUITI DI TRAFFICO
Aircraft EUFI/M-S/C

Departure

Time 2026-04-27 18:04
Airport Turin Airport (LIMF)

Arrival

Time 2026-04-27 18:41
Airport Turin Airport (LIMF)
Time Latitude Longitude Altitude Speed Heading
2026-04-27 17:39 45.18998 7.65319 985 ft 0 kts 185°
2026-04-27 18:03 45.18983 7.65317 988 ft 6 kts 187°
2026-04-27 18:03 45.18952 7.65251 985 ft 11 kts 271°
2026-04-27 18:03 45.18955 7.65147 987 ft 10 kts 273°
2026-04-27 18:03 45.18960 7.65002 982 ft 20 kts 271°
2026-04-27 18:04 45.19070 7.64900 982 ft 53 kts
2026-04-27 18:04 45.20276 7.64965 1228 ft 236 kts
2026-04-27 18:04 45.21935 7.65212 1872 ft 218 kts 30°
2026-04-27 18:04 45.22575 7.66904 2002 ft 224 kts 100°
2026-04-27 18:05 45.21614 7.68686 2099 ft 255 kts 158°
2026-04-27 18:05 45.19884 7.68628 2051 ft 259 kts 195°
2026-04-27 18:05 45.18068 7.67925 2083 ft 254 kts 195°
2026-04-27 18:05 45.16491 7.67594 2005 ft 224 kts 182°
2026-04-27 18:06 45.14948 7.67533 1934 ft 221 kts 181°
2026-04-27 18:06 45.13643 7.68200 1863 ft 196 kts 118°
2026-04-27 18:06 45.13778 7.70056 1842 ft 214 kts 40°
2026-04-27 18:06 45.15162 7.70134 1871 ft 215 kts 315°
2026-04-27 18:07 45.15376 7.68321 1852 ft 206 kts 244°
2026-04-27 18:07 45.14380 7.66993 1896 ft 190 kts 183°
2026-04-27 18:07 45.13222 7.67870 1875 ft 225 kts 118°
2026-04-27 18:07 45.13282 7.70233 2009 ft 278 kts 55°
2026-04-27 18:08 45.15062 7.71453 2106 ft 310 kts 358°
2026-04-27 18:08 45.16689 7.70241 2320 ft 211 kts 295°
2026-04-27 18:08 45.16556 7.68650 2087 ft 190 kts 224°
2026-04-27 18:08 45.15208 7.68077 2076 ft 243 kts 169°
2026-04-27 18:09 45.13633 7.69428 2071 ft 293 kts 129°
2026-04-27 18:09 45.12933 7.72238 2050 ft 298 kts 87°
2026-04-27 18:09 45.13759 7.74311 1952 ft 206 kts 18°
2026-04-27 18:09 45.14918 7.73742 1863 ft 212 kts 294°
2026-04-27 18:10 45.15084 7.71611 1844 ft 228 kts 266°
2026-04-27 18:10 45.15066 7.69653 1802 ft 151 kts 270°
2026-04-27 18:10 45.15149 7.67973 1637 ft 188 kts 275°
2026-04-27 18:10 45.15388 7.66204 1562 ft 153 kts 297°
2026-04-27 18:11 45.16155 7.65009 1422 ft 167 kts 337°
2026-04-27 18:11 45.17314 7.64806 1297 ft 172 kts
2026-04-27 18:11 45.18498 7.64853 1091 ft 173 kts
2026-04-27 18:11 45.19636 7.64935 979 ft 147 kts
2026-04-27 18:12 45.20972 7.65046 1232 ft 247 kts
2026-04-27 18:12 45.21914 7.66346 1859 ft 228 kts 106°
2026-04-27 18:12 45.20917 7.67774 2095 ft 178 kts 169°
2026-04-27 18:12 45.19782 7.67820 2073 ft 181 kts 182°
2026-04-27 18:13 45.18501 7.67751 2136 ft 148 kts 181°
2026-04-27 18:13 45.17585 7.67786 1848 ft 145 kts 174°
2026-04-27 18:13 45.16555 7.67943 2100 ft 146 kts 173°
2026-04-27 18:13 45.15639 7.68137 2229 ft 129 kts 170°
2026-04-27 18:14 45.14650 7.68420 2224 ft 160 kts 168°
2026-04-27 18:14 45.13613 7.68724 2215 ft 150 kts 171°
2026-04-27 18:14 45.12546 7.68964 2176 ft 159 kts 174°
2026-04-27 18:14 45.11525 7.68304 2413 ft 189 kts 239°
2026-04-27 18:15 45.11543 7.66165 2490 ft 257 kts 297°
2026-04-27 18:15 45.12598 7.64800 2065 ft 187 kts 338°
2026-04-27 18:15 45.14011 7.64580 1747 ft 241 kts
2026-04-27 18:15 45.16010 7.64711 1443 ft 346 kts
2026-04-27 18:16 45.19236 7.64906 1018 ft 567 kts
2026-04-27 18:16 45.21696 7.67362 2322 ft 443 kts 109°
2026-04-27 18:16 45.19593 7.68934 2263 ft 321 kts 184°
2026-04-27 18:16 45.17644 7.68689 2187 ft 249 kts 185°
2026-04-27 18:17 45.16231 7.68404 2156 ft 163 kts 204°
2026-04-27 18:17 45.15584 7.67239 2069 ft 162 kts 267°
2026-04-27 18:17 45.15953 7.65825 1736 ft 171 kts 308°
2026-04-27 18:17 45.16863 7.64823 1447 ft 144 kts 352°
2026-04-27 18:18 45.17979 7.64829 1170 ft 166 kts
2026-04-27 18:18 45.19096 7.64899 989 ft 143 kts
2026-04-27 18:18 45.19953 7.64959 978 ft 112 kts
2026-04-27 18:18 45.21024 7.65387 1389 ft 181 kts 94°
2026-04-27 18:19 45.20237 7.66913 1576 ft 214 kts 140°
2026-04-27 18:19 45.18938 7.68062 1875 ft 226 kts 158°
2026-04-27 18:19 45.17433 7.68448 2043 ft 202 kts 167°
2026-04-27 18:19 45.16155 7.69053 2042 ft 172 kts 144°
2026-04-27 18:20 45.15604 7.70419 2118 ft 163 kts 86°
2026-04-27 18:20 45.16216 7.71959 2076 ft 221 kts 50°
2026-04-27 18:20 45.17309 7.73578 2110 ft 235 kts 35°
2026-04-27 18:20 45.18780 7.74282 2217 ft 195 kts 353°
2026-04-27 18:21 45.19674 7.73360 2036 ft 162 kts 285°
2026-04-27 18:21 45.19793 7.71683 1890 ft 188 kts 261°
2026-04-27 18:21 45.19320 7.69772 1892 ft 223 kts 236°
2026-04-27 18:21 45.18163 7.68163 1884 ft 233 kts 204°
2026-04-27 18:22 45.16685 7.67932 1956 ft 231 kts 167°
2026-04-27 18:22 45.15001 7.68748 2311 ft 284 kts 165°
2026-04-27 18:22 45.13364 7.69014 2563 ft 187 kts 189°
2026-04-27 18:22 45.12359 7.68760 2270 ft 136 kts 190°
2026-04-27 18:23 45.11461 7.68545 1865 ft 147 kts 187°
2026-04-27 18:23 45.10349 7.68336 1907 ft 164 kts 186°
2026-04-27 18:23 45.09201 7.68145 2045 ft 165 kts 186°
2026-04-27 18:23 45.08224 7.67990 1999 ft 149 kts 186°
2026-04-27 18:24 45.07014 7.67667 2104 ft 204 kts 193°
2026-04-27 18:24 45.05470 7.67258 2383 ft 244 kts 188°
2026-04-27 18:24 45.03743 7.67008 2738 ft 250 kts 187°
2026-04-27 18:24 45.02357 7.66635 2855 ft 147 kts 191°
2026-04-27 18:25 45.01479 7.66380 2523 ft 152 kts 191°
2026-04-27 18:25 45.00362 7.65938 2563 ft 142 kts 203°
2026-04-27 18:25 44.99506 7.65439 2377 ft 128 kts 200°
2026-04-27 18:25 44.98735 7.64772 2201 ft 155 kts 248°
2026-04-27 18:26 44.98897 7.63262 2254 ft 169 kts 312°
2026-04-27 18:26 44.99977 7.62756 2327 ft 175 kts 13°
2026-04-27 18:26 45.01125 7.63259 2325 ft 170 kts 20°
2026-04-27 18:26 45.02270 7.63723 2333 ft 170 kts 11°
2026-04-27 18:27 45.03450 7.63913 2374 ft 172 kts
2026-04-27 18:27 45.04636 7.63987 2450 ft 172 kts
2026-04-27 18:27 45.05827 7.64054 2542 ft 176 kts
2026-04-27 18:27 45.07018 7.64142 2487 ft 173 kts
2026-04-27 18:28 45.08209 7.64195 2508 ft 173 kts
2026-04-27 18:28 45.09397 7.64257 2467 ft 175 kts
2026-04-27 18:28 45.10586 7.64325 2425 ft 169 kts
2026-04-27 18:28 45.11795 7.64428 2256 ft 183 kts
2026-04-27 18:29 45.13900 7.64574 1790 ft 468 kts
2026-04-27 18:29 45.18014 7.64831 1097 ft 656 kts
2026-04-27 18:29 45.21984 7.65886 3376 ft 522 kts 49°
2026-04-27 18:29 45.22033 7.69529 2036 ft 385 kts 138°
2026-04-27 18:30 45.20069 7.71373 2143 ft 299 kts 163°
2026-04-27 18:30 45.18327 7.71648 2278 ft 207 kts 187°
2026-04-27 18:30 45.17248 7.71032 2141 ft 148 kts 223°
2026-04-27 18:30 45.16740 7.69895 1691 ft 129 kts 259°
2026-04-27 18:31 45.16665 7.68906 1482 ft 165 kts 265°
2026-04-27 18:31 45.16656 7.67323 1333 ft 162 kts 275°
2026-04-27 18:31 45.16896 7.65732 1279 ft 151 kts 298°
2026-04-27 18:31 45.17669 7.64872 1255 ft 136 kts 354°
2026-04-27 18:32 45.18734 7.64878 1046 ft 170 kts
2026-04-27 18:32 45.19787 7.64945 980 ft 124 kts
2026-04-27 18:32 45.20612 7.64997 982 ft 169 kts
2026-04-27 18:32 45.21914 7.65453 1687 ft 169 kts 75°
2026-04-27 18:33 45.21386 7.66635 1598 ft 140 kts 168°
2026-04-27 18:33 45.20283 7.66830 1633 ft 178 kts 172°
2026-04-27 18:33 45.19008 7.67363 1835 ft 206 kts 153°
2026-04-27 18:33 45.17707 7.68625 2096 ft 229 kts 142°
2026-04-27 18:34 45.16531 7.69995 2308 ft 214 kts 141°
2026-04-27 18:34 45.15753 7.71421 2100 ft 171 kts 99°
2026-04-27 18:34 45.16015 7.73133 2040 ft 176 kts 62°
2026-04-27 18:34 45.16922 7.74299 2050 ft 208 kts 19°
2026-04-27 18:35 45.18262 7.74220 2060 ft 192 kts 330°
2026-04-27 18:35 45.19089 7.72802 2082 ft 188 kts 281°
2026-04-27 18:35 45.18882 7.71015 2088 ft 183 kts 231°
2026-04-27 18:35 45.17801 7.70119 2107 ft 184 kts 181°
2026-04-27 18:36 45.16630 7.70749 2114 ft 187 kts 131°
2026-04-27 18:36 45.16228 7.72459 2126 ft 190 kts 81°
2026-04-27 18:36 45.16898 7.74019 2133 ft 191 kts 31°
2026-04-27 18:36 45.18167 7.74340 2135 ft 194 kts 342°
2026-04-27 18:37 45.19183 7.73201 2146 ft 192 kts 292°
2026-04-27 18:37 45.19234 7.71398 2140 ft 194 kts 242°
2026-04-27 18:37 45.18195 7.69975 2159 ft 214 kts 199°
2026-04-27 18:37 45.16774 7.69496 2122 ft 206 kts 187°
2026-04-27 18:38 45.15347 7.69255 2100 ft 208 kts 185°
2026-04-27 18:38 45.13913 7.69086 2084 ft 207 kts 185°
2026-04-27 18:38 45.12632 7.68297 2070 ft 206 kts 227°
2026-04-27 18:38 45.12091 7.66461 2080 ft 209 kts 263°
2026-04-27 18:39 45.12307 7.64621 2141 ft 207 kts 337°
2026-04-27 18:39 45.13758 7.64617 1769 ft 209 kts
2026-04-27 18:39 45.15196 7.64644 1629 ft 209 kts
2026-04-27 18:39 45.16490 7.64729 1269 ft 141 kts
2026-04-27 18:40 45.17464 7.64785 1135 ft 137 kts
2026-04-27 18:40 45.18435 7.64848 1063 ft 136 kts
2026-04-27 18:40 45.19407 7.64912 988 ft 126 kts
2026-04-27 18:40 45.20010 7.64969 978 ft 56 kts
2026-04-27 18:41 45.20181 7.64982 981 ft 9 kts 296°
2026-04-27 18:41 45.20176 7.64936 980 ft 6 kts 220°
2026-04-27 18:41 45.20084 7.64951 985 ft 15 kts 171°
2026-04-27 18:41 45.19915 7.64947 983 ft 26 kts 181°
2026-04-27 18:42 45.19714 7.64941 979 ft 34 kts 179°
2026-04-27 18:42 45.19560 7.64943 981 ft 32 kts 182°
2026-04-27 18:42 45.19266 7.64908 982 ft 35 kts 183°
2026-04-27 18:42 45.19026 7.64899 981 ft 28 kts 173°
2026-04-27 18:43 45.18961 7.65056 990 ft 18 kts 82°
2026-04-27 18:43 45.18955 7.65215 986 ft 10 kts 100°
2026-04-27 18:43 45.18952 7.65261 985 ft 3 kts 90°
2026-04-27 18:43 45.18954 7.65293 985 ft 4 kts 79°
2026-04-27 18:44 45.18980 7.65320 988 ft 3 kts 355°
2026-04-27 18:44 45.19031 7.65297 985 ft 8 kts 22°
2026-04-27 18:44 45.19039 7.65311 985 ft 0 kts 93°
2026-04-27 18:44 45.19029 7.65318 988 ft 6 kts 158°
2026-04-27 18:45 45.19003 7.65325 989 ft 0 kts 148°
2026-04-27 18:45 45.18992 7.65323 985 ft 4 kts 192°
2026-04-27 18:45 45.18989 7.65322 985 ft 0 kts 192°